createdAt,value
2017-08-25T00:00:17.498Z,13.11
2017-08-25T00:01:17.821Z,12.94
2017-08-25T00:02:18.180Z,12.99
2017-08-25T00:03:18.151Z,12.94
2017-08-25T00:04:17.805Z,12.96
2017-08-25T00:05:17.815Z,12.96
2017-08-25T00:06:17.804Z,12.95
2017-08-25T00:07:17.454Z,12.83
2017-08-25T00:08:17.451Z,12.8
2017-08-25T00:09:17.781Z,12.83
2017-08-25T00:10:17.784Z,12.91
2017-08-25T00:11:17.755Z,12.83
2017-08-25T00:12:17.750Z,12.83
2017-08-25T00:13:17.435Z,12.83
2017-08-25T00:14:17.740Z,12.8
2017-08-25T00:15:17.744Z,12.76
2017-08-25T00:16:17.727Z,12.71
2017-08-25T00:17:17.390Z,12.74
2017-08-25T00:18:17.387Z,12.74
2017-08-25T00:19:17.377Z,12.7
2017-08-25T00:20:17.702Z,12.66
2017-08-25T00:21:17.695Z,12.74
2017-08-25T00:22:17.694Z,12.71
2017-08-25T00:23:17.393Z,12.71
2017-08-25T00:24:18.025Z,12.74
2017-08-25T00:25:17.666Z,12.73
2017-08-25T00:26:17.711Z,12.73
2017-08-25T00:27:17.651Z,12.7
2017-08-25T00:28:17.661Z,12.74
2017-08-25T00:29:17.975Z,12.76
2017-08-25T00:30:17.309Z,12.78
2017-08-25T00:31:17.627Z,12.7
2017-08-25T00:32:17.292Z,12.69
2017-08-25T00:33:17.616Z,12.71
2017-08-25T00:34:17.606Z,12.73
2017-08-25T00:35:17.603Z,12.69
2017-08-25T00:36:17.267Z,12.7
2017-08-25T00:37:17.916Z,12.66
2017-08-25T00:38:17.582Z,12.65
2017-08-25T00:39:17.586Z,12.7
2017-08-25T00:40:17.249Z,12.63
2017-08-25T00:41:17.569Z,12.62
2017-08-25T00:42:17.553Z,12.55
2017-08-25T00:43:17.553Z,12.58
2017-08-25T00:44:17.215Z,12.59
2017-08-25T00:45:17.536Z,12.61
2017-08-25T00:46:17.204Z,12.61
2017-08-25T00:47:17.522Z,12.62
2017-08-25T00:48:17.193Z,12.61
2017-08-25T00:49:17.513Z,12.53
2017-08-25T00:50:17.837Z,12.56
2017-08-25T00:51:17.826Z,12.56
2017-08-25T00:52:17.489Z,12.58
2017-08-25T00:53:17.169Z,12.62
2017-08-25T00:54:17.159Z,12.55
2017-08-25T00:55:17.142Z,12.66
2017-08-25T00:56:17.462Z,12.66
2017-08-25T00:57:17.488Z,12.66
2017-08-25T00:58:17.121Z,12.56
2017-08-25T00:59:17.779Z,12.52
2017-08-25T01:00:17.107Z,12.55
2017-08-25T01:01:17.114Z,12.52
2017-08-25T01:02:17.421Z,12.56
2017-08-25T01:03:17.424Z,12.55
2017-08-25T01:04:17.417Z,12.47
2017-08-25T01:05:17.402Z,12.52
2017-08-25T01:06:17.072Z,12.51
2017-08-25T01:07:17.390Z,12.52
2017-08-25T01:08:17.383Z,12.48
2017-08-25T01:09:17.721Z,12.52
2017-08-25T01:10:17.377Z,12.53
2017-08-25T01:11:17.697Z,12.59
2017-08-25T01:12:17.357Z,12.55
2017-08-25T01:13:17.351Z,12.56
2017-08-25T01:14:17.341Z,12.52
2017-08-25T01:15:17.009Z,12.47
2017-08-25T01:16:17.748Z,12.53
2017-08-25T01:17:17.006Z,12.66
2017-08-25T01:18:17.010Z,12.62
2017-08-25T01:19:16.979Z,12.55
2017-08-25T01:20:17.628Z,12.61
2017-08-25T01:21:16.986Z,12.62
2017-08-25T01:22:17.288Z,12.61
2017-08-25T01:23:16.953Z,12.61
2017-08-25T01:24:17.271Z,12.62
2017-08-25T01:25:16.943Z,12.62
2017-08-25T01:26:17.262Z,12.55
2017-08-25T01:27:16.923Z,12.53
2017-08-25T01:28:16.937Z,12.61
2017-08-25T01:29:17.239Z,12.51
2017-08-25T01:30:17.259Z,12.55
2017-08-25T01:31:16.897Z,12.53
2017-08-25T01:32:16.892Z,12.47
2017-08-25T01:33:17.211Z,12.53
2017-08-25T01:34:17.205Z,12.47
2017-08-25T01:35:17.218Z,12.44
2017-08-25T01:36:17.554Z,12.43
2017-08-25T01:37:17.181Z,12.51
2017-08-25T01:38:17.175Z,12.51
2017-08-25T01:39:17.179Z,12.41
2017-08-25T01:40:16.836Z,12.4
2017-08-25T01:41:17.157Z,12.47
2017-08-25T01:42:17.166Z,12.53
2017-08-25T01:43:16.816Z,12.45
2017-08-25T01:44:17.167Z,12.4
2017-08-25T01:45:16.799Z,12.41
2017-08-25T01:46:17.120Z,12.38
2017-08-25T01:47:17.115Z,12.44
2017-08-25T01:48:16.780Z,12.43
2017-08-25T01:49:17.136Z,12.4
2017-08-25T01:50:16.768Z,12.43
2017-08-25T01:51:17.085Z,12.37
2017-08-25T01:52:17.112Z,12.45
2017-08-25T01:53:16.770Z,12.4
2017-08-25T01:54:17.077Z,12.44
2017-08-25T01:55:16.731Z,12.44
2017-08-25T01:56:16.734Z,12.44
2017-08-25T01:57:17.061Z,12.41
2017-08-25T01:58:16.709Z,12.38
2017-08-25T01:59:16.703Z,12.29
2017-08-25T02:00:16.694Z,12.34
2017-08-25T02:01:17.019Z,12.37
2017-08-25T02:02:17.009Z,12.36
2017-08-25T02:03:16.673Z,12.31
2017-08-25T02:04:16.666Z,12.31
2017-08-25T02:05:16.991Z,12.34
2017-08-25T02:06:16.659Z,12.29
2017-08-25T02:07:16.670Z,12.28
2017-08-25T02:08:16.639Z,12.29
2017-08-25T02:09:16.662Z,12.23
2017-08-25T02:10:16.960Z,12.22
2017-08-25T02:11:16.618Z,12.22
2017-08-25T02:12:16.611Z,12.23
2017-08-25T02:13:16.603Z,12.19
2017-08-25T02:14:16.595Z,12.23
2017-08-25T02:15:17.252Z,12.19
2017-08-25T02:16:16.910Z,12.18
2017-08-25T02:17:16.978Z,12.18
2017-08-25T02:18:16.895Z,12.16
2017-08-25T02:19:16.897Z,12.19
2017-08-25T02:20:17.222Z,12.18
2017-08-25T02:21:16.564Z,12.16
2017-08-25T02:22:16.869Z,12.16
2017-08-25T02:23:16.884Z,12.13
2017-08-25T02:24:16.851Z,12.18
2017-08-25T02:25:17.176Z,12.16
2017-08-25T02:26:16.839Z,12.18
2017-08-25T02:27:16.525Z,12.15
2017-08-25T02:28:16.504Z,12.18
2017-08-25T02:29:16.520Z,12.11
2017-08-25T02:30:16.484Z,12.16
2017-08-25T02:31:16.496Z,12.04
2017-08-25T02:32:16.795Z,12.03
2017-08-25T02:33:16.460Z,12.03
2017-08-25T02:34:16.454Z,12
2017-08-25T02:35:16.786Z,12.07
2017-08-25T02:36:16.440Z,12.11
2017-08-25T02:37:16.434Z,12.08
2017-08-25T02:38:16.755Z,12.13
2017-08-25T02:39:16.775Z,12.13
2017-08-25T02:40:16.737Z,12.03
2017-08-25T02:41:16.405Z,12.07
2017-08-25T02:42:16.722Z,12.04
2017-08-25T02:43:16.405Z,12.04
2017-08-25T02:44:16.712Z,12.07
2017-08-25T02:45:16.374Z,12.04
2017-08-25T02:46:17.050Z,12
2017-08-25T02:47:16.687Z,12.03
2017-08-25T02:48:16.366Z,12
2017-08-25T02:49:16.678Z,12
2017-08-25T02:50:16.665Z,12.04
2017-08-25T02:51:16.662Z,11.97
2017-08-25T02:52:16.649Z,12.04
2017-08-25T02:53:16.979Z,11.95
2017-08-25T02:54:16.329Z,12.03
2017-08-25T02:55:16.628Z,11.97
2017-08-25T02:56:16.314Z,11.95
2017-08-25T02:57:16.284Z,11.98
2017-08-25T02:58:16.285Z,11.97
2017-08-25T02:59:16.600Z,11.97
2017-08-25T03:00:16.592Z,11.86
2017-08-25T03:01:16.610Z,11.86
2017-08-25T03:02:16.577Z,11.89
2017-08-25T03:03:16.571Z,11.82
2017-08-25T03:04:16.563Z,11.82
2017-08-25T03:05:16.556Z,11.76
2017-08-25T03:06:16.902Z,11.85
2017-08-25T03:07:16.221Z,11.85
2017-08-25T03:08:16.887Z,11.91
2017-08-25T03:09:16.540Z,11.85
2017-08-25T03:10:16.193Z,11.84
2017-08-25T03:11:16.839Z,11.91
2017-08-25T03:12:16.199Z,11.84
2017-08-25T03:13:16.171Z,11.85
2017-08-25T03:14:16.168Z,11.78
2017-08-25T03:15:16.153Z,11.81
2017-08-25T03:16:16.145Z,11.81
2017-08-25T03:17:16.138Z,11.79
2017-08-25T03:18:16.460Z,11.79
2017-08-25T03:19:16.461Z,11.84
2017-08-25T03:20:16.452Z,11.79
2017-08-25T03:21:16.443Z,11.81
2017-08-25T03:22:16.115Z,11.82
2017-08-25T03:23:16.770Z,11.81
2017-08-25T03:24:16.089Z,11.78
2017-08-25T03:25:16.079Z,11.73
2017-08-25T03:26:16.088Z,11.75
2017-08-25T03:27:16.389Z,11.66
2017-08-25T03:28:16.393Z,11.73
2017-08-25T03:29:16.721Z,11.73
2017-08-25T03:30:16.376Z,11.78
2017-08-25T03:31:16.032Z,11.75
2017-08-25T03:32:16.026Z,11.75
2017-08-25T03:33:16.347Z,11.75
2017-08-25T03:34:16.034Z,11.75
2017-08-25T03:35:16.344Z,11.76
2017-08-25T03:36:16.325Z,11.78
2017-08-25T03:37:16.682Z,11.64
2017-08-25T03:38:15.982Z,11.68
2017-08-25T03:39:16.317Z,11.68
2017-08-25T03:40:16.310Z,11.7
2017-08-25T03:41:16.288Z,11.71
2017-08-25T03:42:15.950Z,11.67
2017-08-25T03:43:16.599Z,11.66
2017-08-25T03:44:15.954Z,11.68
2017-08-25T03:45:16.256Z,11.66
2017-08-25T03:46:15.921Z,11.71
2017-08-25T03:47:16.245Z,11.63
2017-08-25T03:48:15.933Z,11.67
2017-08-25T03:49:15.899Z,11.66
2017-08-25T03:50:16.247Z,11.66
2017-08-25T03:51:16.540Z,11.75
2017-08-25T03:52:15.887Z,11.64
2017-08-25T03:53:16.209Z,11.66
2017-08-25T03:54:15.867Z,11.6
2017-08-25T03:55:15.859Z,11.66
2017-08-25T03:56:15.852Z,11.63
2017-08-25T03:57:16.168Z,11.71
2017-08-25T03:58:16.161Z,11.7
2017-08-25T03:59:15.842Z,11.68
2017-08-25T04:00:15.838Z,11.68
2017-08-25T04:01:16.135Z,11.7
2017-08-25T04:02:16.129Z,11.68
2017-08-25T04:03:16.121Z,11.75
2017-08-25T04:04:15.786Z,11.67
2017-08-25T04:05:16.439Z,11.68
2017-08-25T04:06:15.778Z,11.71
2017-08-25T04:07:16.092Z,11.67
2017-08-25T04:08:15.757Z,11.71
2017-08-25T04:09:16.441Z,11.6
2017-08-25T04:10:16.068Z,11.66
2017-08-25T04:11:16.066Z,11.7
2017-08-25T04:12:16.078Z,11.84
2017-08-25T04:13:16.061Z,11.79
2017-08-25T04:14:15.721Z,11.91
2017-08-25T04:15:16.032Z,11.78
2017-08-25T04:16:15.697Z,11.95
2017-08-25T04:17:16.046Z,11.95
2017-08-25T04:18:15.682Z,12
2017-08-25T04:19:15.678Z,12.03
2017-08-25T04:20:15.685Z,12.01
2017-08-25T04:21:15.659Z,12.03
2017-08-25T04:22:16.007Z,11.95
2017-08-25T04:23:15.644Z,12.03
2017-08-25T04:24:15.639Z,12
2017-08-25T04:25:15.958Z,11.98
2017-08-25T04:26:15.950Z,12.03
2017-08-25T04:27:15.614Z,12.04
2017-08-25T04:28:15.609Z,12.03
2017-08-25T04:29:15.932Z,12.07
2017-08-25T04:30:16.285Z,12.05
2017-08-25T04:31:15.914Z,12.01
2017-08-25T04:32:15.922Z,12.16
2017-08-25T04:33:15.897Z,12.18
2017-08-25T04:34:15.914Z,12.26
2017-08-25T04:35:15.559Z,12.2
2017-08-25T04:36:15.878Z,12.23
2017-08-25T04:37:16.197Z,12.25
2017-08-25T04:38:15.861Z,12.26
2017-08-25T04:39:15.527Z,12.31
2017-08-25T04:40:15.849Z,12.33
2017-08-25T04:41:16.177Z,12.26
2017-08-25T04:42:16.163Z,12.29
2017-08-25T04:43:15.828Z,12.29
2017-08-25T04:44:15.822Z,12.23
2017-08-25T04:45:15.504Z,12.34
2017-08-25T04:46:15.830Z,12.43
2017-08-25T04:47:16.144Z,12.44
2017-08-25T04:48:16.124Z,12.56
2017-08-25T04:49:16.115Z,12.66
2017-08-25T04:50:15.448Z,12.58
2017-08-25T04:51:15.440Z,12.69
2017-08-25T04:52:15.782Z,12.71
2017-08-25T04:53:15.436Z,12.76
2017-08-25T04:54:15.417Z,12.81
2017-08-25T04:55:15.412Z,12.89
2017-08-25T04:56:15.408Z,12.91
2017-08-25T04:57:15.405Z,12.88
2017-08-25T04:58:15.393Z,12.89
2017-08-25T04:59:15.721Z,12.89
2017-08-25T05:00:15.387Z,12.88
2017-08-25T05:01:15.700Z,12.95
2017-08-25T05:02:15.693Z,12.92
2017-08-25T05:03:15.364Z,12.98
2017-08-25T05:04:15.686Z,12.95
2017-08-25T05:05:15.345Z,12.92
2017-08-25T05:06:15.354Z,12.91
2017-08-25T05:07:15.998Z,12.96
2017-08-25T05:08:15.655Z,12.92
2017-08-25T05:09:15.317Z,12.94
2017-08-25T05:10:15.658Z,12.95
2017-08-25T05:11:15.634Z,12.98
2017-08-25T05:12:15.296Z,12.96
2017-08-25T05:13:15.621Z,12.94
2017-08-25T05:14:15.944Z,12.96
2017-08-25T05:15:15.279Z,12.96
2017-08-25T05:16:15.597Z,13.07
2017-08-25T05:17:15.593Z,13.09
2017-08-25T05:18:15.595Z,13.14
2017-08-25T05:19:15.576Z,13.25
2017-08-25T05:20:15.573Z,13.21
2017-08-25T05:21:15.598Z,13.24
2017-08-25T05:22:15.231Z,13.28
2017-08-25T05:23:15.228Z,13.42
2017-08-25T05:24:15.557Z,13.5
2017-08-25T05:25:15.218Z,13.48
2017-08-25T05:26:15.880Z,13.57
2017-08-25T05:27:15.195Z,13.69
2017-08-25T05:28:15.847Z,13.69
2017-08-25T05:29:15.183Z,13.75
2017-08-25T05:30:15.509Z,13.83
2017-08-25T05:31:15.511Z,13.81
2017-08-25T05:32:15.496Z,13.91
2017-08-25T05:33:15.816Z,13.95
2017-08-25T05:34:15.152Z,14.02
2017-08-25T05:35:15.494Z,13.97
2017-08-25T05:36:15.141Z,14.05
2017-08-25T05:37:15.497Z,14.05
2017-08-25T05:38:15.174Z,14.16
2017-08-25T05:39:15.170Z,14.16
2017-08-25T05:40:15.156Z,14.16
2017-08-25T05:41:15.463Z,14.23
2017-08-25T05:42:15.187Z,14.26
2017-08-25T05:43:15.808Z,14.3
2017-08-25T05:44:15.994Z,14.42
2017-08-25T05:45:15.569Z,14.38
2017-08-25T05:46:16.159Z,14.45
2017-08-25T05:47:15.103Z,14.46
2017-08-25T05:48:15.543Z,14.61
2017-08-25T05:49:15.121Z,14.63
2017-08-25T05:50:15.186Z,14.66
2017-08-25T05:51:15.890Z,14.7
2017-08-25T05:52:15.561Z,14.83
2017-08-25T05:53:15.540Z,14.95
2017-08-25T05:54:15.095Z,15.01
2017-08-25T05:55:15.365Z,15.16
2017-08-25T05:56:15.356Z,15.33
2017-08-25T05:57:15.351Z,15.41
2017-08-25T05:58:15.355Z,15.52
2017-08-25T05:59:15.015Z,15.56
2017-08-25T06:00:15.670Z,15.56
2017-08-25T06:01:15.335Z,15.73
2017-08-25T06:02:15.652Z,15.73
2017-08-25T06:03:15.663Z,15.71
2017-08-25T06:04:15.323Z,15.77
2017-08-25T06:05:15.003Z,15.77
2017-08-25T06:06:14.976Z,15.75
2017-08-25T06:07:14.985Z,15.89
2017-08-25T06:08:14.982Z,15.91
2017-08-25T06:09:15.308Z,15.95
2017-08-25T06:10:15.285Z,16.02
2017-08-25T06:11:14.956Z,16.02
2017-08-25T06:12:14.950Z,16.21
2017-08-25T06:13:14.942Z,16.17
2017-08-25T06:14:15.619Z,16.13
2017-08-25T06:15:15.264Z,16.26
2017-08-25T06:16:15.257Z,16.34
2017-08-25T06:17:14.923Z,16.3
2017-08-25T06:18:14.926Z,16.26
2017-08-25T06:19:14.926Z,16.36
2017-08-25T06:20:15.242Z,16.47
2017-08-25T06:21:14.926Z,16.59
2017-08-25T06:22:14.901Z,16.72
2017-08-25T06:23:15.224Z,16.81
2017-08-25T06:24:15.233Z,16.87
2017-08-25T06:25:15.219Z,16.91
2017-08-25T06:26:14.884Z,17.15
2017-08-25T06:27:14.887Z,17.09
2017-08-25T06:28:15.224Z,17.21
2017-08-25T06:29:15.268Z,17.35
2017-08-25T06:30:14.873Z,17.38
2017-08-25T06:31:14.866Z,17.55
2017-08-25T06:32:14.885Z,17.6
2017-08-25T06:33:14.881Z,17.71
2017-08-25T06:34:15.514Z,17.71
2017-08-25T06:35:15.181Z,17.71
2017-08-25T06:36:15.183Z,17.66
2017-08-25T06:37:15.187Z,17.74
2017-08-25T06:38:15.170Z,17.73
2017-08-25T06:39:15.173Z,17.79
2017-08-25T06:40:14.833Z,17.8
2017-08-25T06:41:15.158Z,17.8
2017-08-25T06:42:14.852Z,17.83
2017-08-25T06:43:14.824Z,17.86
2017-08-25T06:44:14.820Z,17.87
2017-08-25T06:45:15.483Z,17.88
2017-08-25T06:46:14.832Z,17.81
2017-08-25T06:47:15.140Z,17.94
2017-08-25T06:48:14.859Z,18.16
2017-08-25T06:49:15.147Z,18.45
2017-08-25T06:50:14.804Z,19.06
2017-08-25T06:51:15.133Z,19.52
2017-08-25T06:52:15.452Z,20.01
2017-08-25T06:53:15.143Z,20.04
2017-08-25T06:54:14.792Z,20.04
2017-08-25T06:55:15.128Z,20.46
2017-08-25T06:56:14.789Z,21.09
2017-08-25T06:57:15.130Z,21.59
2017-08-25T06:58:15.114Z,21.78
2017-08-25T06:59:15.109Z,22.04
2017-08-25T07:00:15.456Z,22.18
2017-08-25T07:01:14.778Z,22.38
2017-08-25T07:02:15.116Z,22.64
2017-08-25T07:03:15.106Z,22.91
2017-08-25T07:04:14.775Z,22.99
2017-08-25T07:05:15.123Z,22.91
2017-08-25T07:06:14.774Z,22.78
2017-08-25T07:07:15.131Z,22.54
2017-08-25T07:08:15.099Z,22.31
2017-08-25T07:09:14.771Z,22.18
2017-08-25T07:10:14.773Z,22.12
2017-08-25T07:11:15.430Z,22.14
2017-08-25T07:12:14.785Z,22.02
2017-08-25T07:13:14.774Z,21.77
2017-08-25T07:14:15.097Z,21.58
2017-08-25T07:15:15.108Z,21.4
2017-08-25T07:16:14.775Z,21.27
2017-08-25T07:17:14.788Z,21.19
2017-08-25T07:18:14.796Z,21.03
2017-08-25T07:19:14.767Z,20.81
2017-08-25T07:20:15.098Z,20.83
2017-08-25T07:21:14.763Z,20.71
2017-08-25T07:22:15.117Z,20.72
2017-08-25T07:23:14.767Z,20.57
2017-08-25T07:24:14.764Z,20.42
2017-08-25T07:25:15.093Z,20.37
2017-08-25T07:26:15.121Z,20.34
2017-08-25T07:27:14.760Z,20.32
2017-08-25T07:28:15.114Z,20.3
2017-08-25T07:29:15.091Z,20.46
2017-08-25T07:30:14.762Z,20.66
2017-08-25T07:31:15.086Z,20.82
2017-08-25T07:32:14.785Z,21.22
2017-08-25T07:33:14.778Z,21.43
2017-08-25T07:34:15.481Z,21.64
2017-08-25T07:35:14.760Z,21.74
2017-08-25T07:36:15.101Z,21.61
2017-08-25T07:37:15.085Z,21.64
2017-08-25T07:38:15.104Z,21.62
2017-08-25T07:39:15.119Z,21.59
2017-08-25T07:40:15.083Z,21.62
2017-08-25T07:41:15.084Z,21.59
2017-08-25T07:42:15.082Z,21.67
2017-08-25T07:43:14.754Z,21.61
2017-08-25T07:44:14.775Z,21.59
2017-08-25T07:45:14.752Z,21.59
2017-08-25T07:46:15.444Z,21.59
2017-08-25T07:47:15.091Z,21.66
2017-08-25T07:48:15.080Z,21.67
2017-08-25T07:49:14.763Z,21.62
2017-08-25T07:50:14.778Z,21.7
2017-08-25T07:51:14.755Z,21.77
2017-08-25T07:52:14.753Z,21.78
2017-08-25T07:53:14.754Z,21.94
2017-08-25T07:54:14.760Z,21.92
2017-08-25T07:55:15.119Z,21.94
2017-08-25T07:56:14.765Z,21.97
2017-08-25T07:57:15.084Z,22.07
2017-08-25T07:58:15.095Z,21.97
2017-08-25T07:59:14.754Z,21.92
2017-08-25T08:00:15.101Z,22.02
2017-08-25T08:01:15.082Z,21.99
2017-08-25T08:02:14.754Z,21.89
2017-08-25T08:03:14.756Z,21.78
2017-08-25T08:04:15.103Z,21.7
2017-08-25T08:05:14.753Z,21.61
2017-08-25T08:06:15.414Z,21.58
2017-08-25T08:07:15.084Z,21.64
2017-08-25T08:08:14.775Z,21.49
2017-08-25T08:09:14.754Z,21.51
2017-08-25T08:10:14.757Z,21.45
2017-08-25T08:11:15.108Z,21.43
2017-08-25T08:12:15.422Z,21.33
2017-08-25T08:13:14.774Z,21.37
2017-08-25T08:14:14.752Z,21.36
2017-08-25T08:15:14.761Z,21.28
2017-08-25T08:16:14.755Z,21.27
2017-08-25T08:17:15.080Z,21.22
2017-08-25T08:18:15.082Z,21.21
2017-08-25T08:19:15.082Z,21.36
2017-08-25T08:20:15.434Z,21.46
2017-08-25T08:21:14.756Z,21.51
2017-08-25T08:22:15.419Z,21.43
2017-08-25T08:23:15.100Z,21.41
2017-08-25T08:24:15.419Z,21.41
2017-08-25T08:25:14.754Z,21.49
2017-08-25T08:26:14.763Z,21.74
2017-08-25T08:27:15.081Z,21.9
2017-08-25T08:28:14.766Z,21.94
2017-08-25T08:29:14.766Z,21.93
2017-08-25T08:30:15.083Z,21.78
2017-08-25T08:31:14.753Z,21.76
2017-08-25T08:32:15.440Z,21.78
2017-08-25T08:33:14.753Z,21.85
2017-08-25T08:34:15.084Z,21.99
2017-08-25T08:35:15.083Z,21.92
2017-08-25T08:36:14.755Z,21.77
2017-08-25T08:37:14.776Z,21.46
2017-08-25T08:38:14.754Z,21.49
2017-08-25T08:39:14.771Z,21.46
2017-08-25T08:40:15.096Z,21.41
2017-08-25T08:41:15.097Z,21.41
2017-08-25T08:42:15.083Z,21.49
2017-08-25T08:43:14.773Z,21.45
2017-08-25T08:44:14.754Z,21.45
2017-08-25T08:45:15.083Z,21.62
2017-08-25T08:46:15.127Z,21.59
2017-08-25T08:47:15.420Z,21.49
2017-08-25T08:48:14.753Z,21.62
2017-08-25T08:49:14.753Z,21.59
2017-08-25T08:50:15.099Z,21.58
2017-08-25T08:51:15.087Z,21.7
2017-08-25T08:52:15.085Z,21.61
2017-08-25T08:53:14.754Z,21.62
2017-08-25T08:54:15.081Z,21.62
2017-08-25T08:55:15.107Z,21.62
2017-08-25T08:56:14.751Z,21.73
2017-08-25T08:57:14.754Z,21.59
2017-08-25T08:58:14.775Z,21.7
2017-08-25T08:59:15.082Z,21.89
2017-08-25T09:00:15.081Z,21.96
2017-08-25T09:01:14.752Z,22
2017-08-25T09:02:14.754Z,22
2017-08-25T09:03:15.088Z,22.04
2017-08-25T09:04:15.081Z,22.05
2017-08-25T09:05:14.753Z,22
2017-08-25T09:06:15.080Z,22.04
2017-08-25T09:07:15.080Z,21.96
2017-08-25T09:08:15.104Z,22.04
2017-08-25T09:09:15.081Z,22.07
2017-08-25T09:10:15.105Z,22.08
2017-08-25T09:11:14.762Z,22.09
2017-08-25T09:12:15.104Z,22.24
2017-08-25T09:13:14.768Z,22.33
2017-08-25T09:14:15.121Z,22.42
2017-08-25T09:15:14.752Z,22.61
2017-08-25T09:16:15.084Z,22.78
2017-08-25T09:17:14.752Z,22.92
2017-08-25T09:18:14.757Z,22.97
2017-08-25T09:19:15.081Z,23.03
2017-08-25T09:20:14.756Z,23.1
2017-08-25T09:21:14.773Z,23.12
2017-08-25T09:22:15.108Z,23.09
2017-08-25T09:23:14.757Z,23.22
2017-08-25T09:24:15.086Z,23.22
2017-08-25T09:25:14.962Z,23.16
2017-08-25T09:26:14.757Z,23.34
2017-08-25T09:27:14.765Z,23.24
2017-08-25T09:28:14.759Z,23.32
2017-08-25T09:29:15.089Z,23.34
2017-08-25T09:30:14.789Z,23.35
2017-08-25T09:31:15.111Z,23.56
2017-08-25T09:32:14.772Z,23.62
2017-08-25T09:33:15.127Z,23.57
2017-08-25T09:34:15.093Z,23.64
2017-08-25T09:35:14.764Z,23.66
2017-08-25T09:36:15.112Z,23.71
2017-08-25T09:37:15.099Z,23.96
2017-08-25T09:38:14.790Z,24.17
2017-08-25T09:39:14.773Z,24.27
2017-08-25T09:40:14.771Z,24.37
2017-08-25T09:41:15.114Z,24.42
2017-08-25T09:42:15.447Z,24.37
2017-08-25T09:43:15.104Z,24.37
2017-08-25T09:44:15.104Z,24.39
2017-08-25T09:45:15.478Z,24.36
2017-08-25T09:46:15.126Z,24.32
2017-08-25T09:47:15.444Z,24.19
2017-08-25T09:48:14.784Z,24.18
2017-08-25T09:49:14.786Z,24.18
2017-08-25T09:50:15.137Z,24.27
2017-08-25T09:51:15.114Z,24.14
2017-08-25T09:52:14.804Z,24.08
2017-08-25T09:53:15.119Z,24.03
2017-08-25T09:54:14.812Z,24
2017-08-25T09:55:15.143Z,23.99
2017-08-25T09:56:14.796Z,23.85
2017-08-25T09:57:14.797Z,23.87
2017-08-25T09:58:14.799Z,23.94
2017-08-25T09:59:15.468Z,23.97
2017-08-25T10:00:15.133Z,24
2017-08-25T10:01:14.807Z,24.02
2017-08-25T10:02:14.808Z,24.04
2017-08-25T10:03:14.823Z,24.09
2017-08-25T10:04:14.809Z,24.3
2017-08-25T10:05:15.141Z,24.33
2017-08-25T10:06:15.182Z,24.37
2017-08-25T10:07:14.814Z,24.49
2017-08-25T10:08:14.820Z,24.34
2017-08-25T10:09:14.818Z,24.3
2017-08-25T10:10:14.821Z,24.48
2017-08-25T10:11:14.848Z,24.45
2017-08-25T10:12:15.492Z,24.42
2017-08-25T10:13:14.826Z,24.51
2017-08-25T10:14:14.832Z,24.49
2017-08-25T10:15:14.830Z,24.66
2017-08-25T10:16:15.161Z,24.58
2017-08-25T10:17:15.171Z,24.58
2017-08-25T10:18:14.868Z,24.59
2017-08-25T10:19:15.167Z,24.56
2017-08-25T10:20:15.172Z,24.59
2017-08-25T10:21:15.505Z,24.67
2017-08-25T10:22:15.219Z,24.63
2017-08-25T10:23:14.843Z,24.54
2017-08-25T10:24:15.176Z,24.52
2017-08-25T10:25:15.194Z,24.44
2017-08-25T10:26:15.181Z,24.42
2017-08-25T10:27:14.872Z,24.42
2017-08-25T10:28:15.188Z,24.44
2017-08-25T10:29:14.862Z,24.34
2017-08-25T10:30:15.189Z,24.29
2017-08-25T10:31:14.865Z,24.12
2017-08-25T10:32:14.867Z,23.96
2017-08-25T10:33:15.216Z,23.77
2017-08-25T10:34:14.869Z,23.78
2017-08-25T10:35:14.888Z,23.7
2017-08-25T10:36:14.873Z,23.67
2017-08-25T10:37:14.882Z,23.71
2017-08-25T10:38:14.876Z,23.74
2017-08-25T10:39:14.879Z,23.74
2017-08-25T10:40:15.543Z,23.82
2017-08-25T10:41:15.212Z,24
2017-08-25T10:42:15.226Z,24.15
2017-08-25T10:43:15.559Z,24.17
2017-08-25T10:44:15.241Z,24.15
2017-08-25T10:45:14.891Z,23.97
2017-08-25T10:46:15.558Z,23.75
2017-08-25T10:47:14.896Z,23.6
2017-08-25T10:48:14.895Z,23.44
2017-08-25T10:49:15.237Z,23.32
2017-08-25T10:50:15.588Z,23.25
2017-08-25T10:51:14.899Z,23.28
2017-08-25T10:52:14.902Z,23.38
2017-08-25T10:53:15.558Z,23.35
2017-08-25T10:54:15.236Z,23.32
2017-08-25T10:55:15.581Z,23.37
2017-08-25T10:56:14.909Z,23.5
2017-08-25T10:57:14.909Z,23.6
2017-08-25T10:58:14.930Z,23.62
2017-08-25T10:59:15.269Z,23.59
2017-08-25T11:00:14.912Z,23.64
2017-08-25T11:01:15.247Z,23.72
2017-08-25T11:02:14.917Z,23.89
2017-08-25T11:03:14.925Z,24.02
2017-08-25T11:04:15.248Z,24.19
2017-08-25T11:05:14.950Z,24.29
2017-08-25T11:06:14.923Z,24.21
2017-08-25T11:07:15.582Z,24.19
2017-08-25T11:08:14.924Z,24.02
2017-08-25T11:09:14.928Z,23.89
2017-08-25T11:10:14.928Z,23.75
2017-08-25T11:11:15.277Z,23.64
2017-08-25T11:12:14.931Z,23.64
2017-08-25T11:13:14.936Z,23.47
2017-08-25T11:14:15.594Z,23.4
2017-08-25T11:15:14.936Z,23.35
2017-08-25T11:16:15.265Z,23.25
2017-08-25T11:17:14.938Z,23.32
2017-08-25T11:18:15.273Z,23.29
2017-08-25T11:19:14.942Z,23.19
2017-08-25T11:20:15.015Z,23.34
2017-08-25T11:21:14.944Z,23.48
2017-08-25T11:22:15.602Z,23.45
2017-08-25T11:23:15.285Z,23.57
2017-08-25T11:24:15.621Z,23.53
2017-08-25T11:25:15.284Z,23.66
2017-08-25T11:26:15.278Z,23.78
2017-08-25T11:27:14.953Z,23.74
2017-08-25T11:28:14.954Z,23.79
2017-08-25T11:29:14.970Z,23.74
2017-08-25T11:30:15.291Z,23.75
2017-08-25T11:31:15.287Z,23.78
2017-08-25T11:32:15.612Z,23.72
2017-08-25T11:33:14.961Z,23.75
2017-08-25T11:34:15.619Z,23.78
2017-08-25T11:35:15.296Z,23.81
2017-08-25T11:36:15.304Z,23.74
2017-08-25T11:37:14.965Z,23.67
2017-08-25T11:38:15.296Z,23.66
2017-08-25T11:39:15.302Z,23.74
2017-08-25T11:40:15.314Z,23.62
2017-08-25T11:41:14.971Z,23.63
2017-08-25T11:42:14.974Z,23.59
2017-08-25T11:43:14.973Z,23.62
2017-08-25T11:44:15.302Z,23.64
2017-08-25T11:45:14.977Z,23.66
2017-08-25T11:46:15.314Z,23.67
2017-08-25T11:47:15.326Z,23.79
2017-08-25T11:48:14.982Z,23.77
2017-08-25T11:49:15.310Z,23.81
2017-08-25T11:50:15.004Z,23.78
2017-08-25T11:51:15.317Z,23.85
2017-08-25T11:52:15.312Z,23.9
2017-08-25T11:53:14.989Z,23.94
2017-08-25T11:54:15.316Z,23.97
2017-08-25T11:55:14.992Z,23.99
2017-08-25T11:56:15.337Z,23.96
2017-08-25T11:57:15.323Z,24.04
2017-08-25T11:58:15.323Z,24.11
2017-08-25T11:59:15.324Z,24.08
2017-08-25T12:00:14.999Z,24.11
2017-08-25T12:01:15.003Z,24.07
2017-08-25T12:02:15.332Z,24.08
2017-08-25T12:03:15.018Z,23.97
2017-08-25T12:04:15.005Z,24
2017-08-25T12:05:15.006Z,23.93
2017-08-25T12:06:15.007Z,23.85
2017-08-25T12:07:15.011Z,23.92
2017-08-25T12:08:15.340Z,23.89
2017-08-25T12:09:15.011Z,23.9
2017-08-25T12:10:15.346Z,23.87
2017-08-25T12:11:15.364Z,23.82
2017-08-25T12:12:15.343Z,23.85
2017-08-25T12:13:15.350Z,23.77
2017-08-25T12:14:15.674Z,23.81
2017-08-25T12:15:15.348Z,23.7
2017-08-25T12:16:15.352Z,23.6
2017-08-25T12:17:15.361Z,23.63
2017-08-25T12:18:15.706Z,23.62
2017-08-25T12:19:15.026Z,23.56
2017-08-25T12:20:15.356Z,23.64
2017-08-25T12:21:15.047Z,23.62
2017-08-25T12:22:15.690Z,23.72
2017-08-25T12:23:15.691Z,23.79
2017-08-25T12:24:15.035Z,23.92
2017-08-25T12:25:15.382Z,23.9
2017-08-25T12:26:15.710Z,23.96
2017-08-25T12:27:15.057Z,24
2017-08-25T12:28:15.041Z,23.99
2017-08-25T12:29:15.368Z,24.04
2017-08-25T12:30:15.381Z,24.08
2017-08-25T12:31:15.067Z,24.08
2017-08-25T12:32:15.055Z,24.11
2017-08-25T12:33:15.711Z,24.12
2017-08-25T12:34:15.053Z,24.09
2017-08-25T12:35:15.416Z,24
2017-08-25T12:36:15.056Z,24.04
2017-08-25T12:37:15.385Z,24.03
2017-08-25T12:38:15.388Z,24.03
2017-08-25T12:39:15.387Z,24.03
2017-08-25T12:40:15.061Z,24.11
2017-08-25T12:41:15.060Z,24.04
2017-08-25T12:42:15.091Z,24
2017-08-25T12:43:15.392Z,23.99
2017-08-25T12:44:15.068Z,23.99
2017-08-25T12:45:15.089Z,24
2017-08-25T12:46:15.401Z,24.09
2017-08-25T12:47:15.408Z,24.11
2017-08-25T12:48:15.402Z,24.17
2017-08-25T12:49:15.087Z,24.14
2017-08-25T12:50:15.076Z,24.12
2017-08-25T12:51:15.413Z,24.15
2017-08-25T12:52:15.418Z,24.24
2017-08-25T12:53:15.423Z,24.22
2017-08-25T12:54:15.739Z,24.22
2017-08-25T12:55:15.758Z,24.12